sensor_id;sensor_type;location;lat;lon;timestamp;temperature;humidity
2447;DHT22;26430;48.818;9.244;2023-09-30T00:02:11;18.50;99.90
2447;DHT22;26430;48.818;9.244;2023-09-30T00:04:38;18.50;99.90
2447;DHT22;26430;48.818;9.244;2023-09-30T00:07:03;18.50;99.90
2447;DHT22;26430;48.818;9.244;2023-09-30T00:09:30;18.40;99.90
2447;DHT22;26430;48.818;9.244;2023-09-30T00:11:55;18.40;99.90
2447;DHT22;26430;48.818;9.244;2023-09-30T00:14:21;18.40;99.90
2447;DHT22;26430;48.818;9.244;2023-09-30T00:16:47;18.60;99.90
2447;DHT22;26430;48.818;9.244;2023-09-30T00:19:12;18.60;99.90
2447;DHT22;26430;48.818;9.244;2023-09-30T00:21:39;18.50;99.90
2447;DHT22;26430;48.818;9.244;2023-09-30T00:24:05;18.50;99.90
2447;DHT22;26430;48.818;9.244;2023-09-30T00:26:30;18.50;99.90
2447;DHT22;26430;48.818;9.244;2023-09-30T00:28:56;18.40;99.90
2447;DHT22;26430;48.818;9.244;2023-09-30T00:31:22;18.40;99.90
2447;DHT22;26430;48.818;9.244;2023-09-30T00:33:47;18.40;99.90
2447;DHT22;26430;48.818;9.244;2023-09-30T00:36:13;18.40;99.90
2447;DHT22;26430;48.818;9.244;2023-09-30T00:38:39;18.40;99.90
2447;DHT22;26430;48.818;9.244;2023-09-30T00:41:06;18.50;99.90
2447;DHT22;26430;48.818;9.244;2023-09-30T00:43:32;18.50;99.90
2447;DHT22;26430;48.818;9.244;2023-09-30T00:48:37;18.30;99.90
2447;DHT22;26430;48.818;9.244;2023-09-30T00:51:03;18.40;99.90
2447;DHT22;26430;48.818;9.244;2023-09-30T00:53:29;18.40;99.90
2447;DHT22;26430;48.818;9.244;2023-09-30T00:55:55;18.30;99.90
2447;DHT22;26430;48.818;9.244;2023-09-30T00:58:22;18.10;99.90
2447;DHT22;26430;48.818;9.244;2023-09-30T01:00:52;18.00;99.90
2447;DHT22;26430;48.818;9.244;2023-09-30T01:03:18;17.90;99.90
2447;DHT22;26430;48.818;9.244;2023-09-30T01:05:45;17.80;99.90
2447;DHT22;26430;48.818;9.244;2023-09-30T01:08:10;17.70;99.90
2447;DHT22;26430;48.818;9.244;2023-09-30T01:10:36;17.60;99.90
2447;DHT22;26430;48.818;9.244;2023-09-30T01:13:02;17.60;99.90
2447;DHT22;26430;48.818;9.244;2023-09-30T01:15:29;17.70;99.90
2447;DHT22;26430;48.818;9.244;2023-09-30T01:17:54;17.60;99.90
2447;DHT22;26430;48.818;9.244;2023-09-30T01:20:20;17.50;99.90
2447;DHT22;26430;48.818;9.244;2023-09-30T01:22:48;17.50;99.90
2447;DHT22;26430;48.818;9.244;2023-09-30T01:25:14;17.50;99.90
2447;DHT22;26430;48.818;9.244;2023-09-30T01:27:40;17.40;99.90
2447;DHT22;26430;48.818;9.244;2023-09-30T01:30:06;17.30;99.90
2447;DHT22;26430;48.818;9.244;2023-09-30T01:32:32;17.30;99.90
2447;DHT22;26430;48.818;9.244;2023-09-30T01:34:57;17.30;99.90
2447;DHT22;26430;48.818;9.244;2023-09-30T01:37:26;17.40;99.90
2447;DHT22;26430;48.818;9.244;2023-09-30T01:39:52;17.30;99.90
2447;DHT22;26430;48.818;9.244;2023-09-30T01:42:20;17.30;99.90
2447;DHT22;26430;48.818;9.244;2023-09-30T01:44:46;17.20;99.90
2447;DHT22;26430;48.818;9.244;2023-09-30T01:47:11;17.20;99.90
2447;DHT22;26430;48.818;9.244;2023-09-30T01:49:37;17.20;99.90
2447;DHT22;26430;48.818;9.244;2023-09-30T01:52:03;17.20;99.90
2447;DHT22;26430;48.818;9.244;2023-09-30T01:54:29;17.20;99.90
2447;DHT22;26430;48.818;9.244;2023-09-30T01:56:56;17.10;99.90
2447;DHT22;26430;48.818;9.244;2023-09-30T01:59:22;17.20;99.90
2447;DHT22;26430;48.818;9.244;2023-09-30T02:01:49;17.20;99.90
2447;DHT22;26430;48.818;9.244;2023-09-30T02:04:14;17.00;99.90
2447;DHT22;26430;48.818;9.244;2023-09-30T02:06:43;16.90;99.90
2447;DHT22;26430;48.818;9.244;2023-09-30T02:09:08;16.90;99.90
2447;DHT22;26430;48.818;9.244;2023-09-30T02:11:37;16.80;99.90
2447;DHT22;26430;48.818;9.244;2023-09-30T02:14:03;16.80;99.90
2447;DHT22;26430;48.818;9.244;2023-09-30T02:16:28;16.70;99.90
2447;DHT22;26430;48.818;9.244;2023-09-30T02:18:54;16.70;99.90
2447;DHT22;26430;48.818;9.244;2023-09-30T02:21:20;16.70;99.90
2447;DHT22;26430;48.818;9.244;2023-09-30T02:23:47;16.70;99.90
2447;DHT22;26430;48.818;9.244;2023-09-30T02:26:20;16.70;99.90
2447;DHT22;26430;48.818;9.244;2023-09-30T02:28:47;16.70;99.90
2447;DHT22;26430;48.818;9.244;2023-09-30T02:31:13;16.70;99.90
2447;DHT22;26430;48.818;9.244;2023-09-30T02:33:38;16.60;99.90
2447;DHT22;26430;48.818;9.244;2023-09-30T02:36:08;16.60;99.90
2447;DHT22;26430;48.818;9.244;2023-09-30T02:38:37;16.60;99.90
2447;DHT22;26430;48.818;9.244;2023-09-30T02:41:03;16.60;99.90
2447;DHT22;26430;48.818;9.244;2023-09-30T02:43:28;16.60;99.90
2447;DHT22;26430;48.818;9.244;2023-09-30T02:45:54;16.50;99.90
2447;DHT22;26430;48.818;9.244;2023-09-30T02:48:20;16.50;99.90
2447;DHT22;26430;48.818;9.244;2023-09-30T02:50:45;16.50;99.90
2447;DHT22;26430;48.818;9.244;2023-09-30T02:53:11;16.60;99.90
2447;DHT22;26430;48.818;9.244;2023-09-30T02:55:38;16.50;99.90
2447;DHT22;26430;48.818;9.244;2023-09-30T02:58:04;16.60;99.90
2447;DHT22;26430;48.818;9.244;2023-09-30T03:00:30;16.70;99.90
2447;DHT22;26430;48.818;9.244;2023-09-30T03:03:00;16.70;99.90
2447;DHT22;26430;48.818;9.244;2023-09-30T03:05:27;16.70;99.90
2447;DHT22;26430;48.818;9.244;2023-09-30T03:07:53;16.60;99.90
2447;DHT22;26430;48.818;9.244;2023-09-30T03:10:20;16.70;99.90
2447;DHT22;26430;48.818;9.244;2023-09-30T03:12:53;16.70;99.90
2447;DHT22;26430;48.818;9.244;2023-09-30T03:15:18;16.80;99.90
2447;DHT22;26430;48.818;9.244;2023-09-30T03:17:44;16.80;99.90
2447;DHT22;26430;48.818;9.244;2023-09-30T03:20:10;16.70;99.90
2447;DHT22;26430;48.818;9.244;2023-09-30T03:22:43;16.70;99.90
2447;DHT22;26430;48.818;9.244;2023-09-30T03:25:13;16.70;99.90
2447;DHT22;26430;48.818;9.244;2023-09-30T03:27:41;16.70;99.90
2447;DHT22;26430;48.818;9.244;2023-09-30T03:30:07;16.90;99.90
2447;DHT22;26430;48.818;9.244;2023-09-30T03:32:34;17.10;99.90
2447;DHT22;26430;48.818;9.244;2023-09-30T03:35:07;17.10;99.90
2447;DHT22;26430;48.818;9.244;2023-09-30T03:37:33;17.10;99.90
2447;DHT22;26430;48.818;9.244;2023-09-30T03:40:00;17.10;99.90
2447;DHT22;26430;48.818;9.244;2023-09-30T03:42:32;17.10;99.90
2447;DHT22;26430;48.818;9.244;2023-09-30T03:44:57;17.00;99.90
2447;DHT22;26430;48.818;9.244;2023-09-30T03:47:23;16.90;99.90
2447;DHT22;26430;48.818;9.244;2023-09-30T03:49:49;16.70;99.90
2447;DHT22;26430;48.818;9.244;2023-09-30T03:52:14;16.80;99.90
2447;DHT22;26430;48.818;9.244;2023-09-30T03:54:40;16.80;99.90
2447;DHT22;26430;48.818;9.244;2023-09-30T03:57:07;16.80;99.90
2447;DHT22;26430;48.818;9.244;2023-09-30T03:59:32;16.70;99.90
2447;DHT22;26430;48.818;9.244;2023-09-30T04:01:58;16.60;99.90
2447;DHT22;26430;48.818;9.244;2023-09-30T04:04:23;16.60;99.90
2447;DHT22;26430;48.818;9.244;2023-09-30T04:06:49;16.60;99.90
2447;DHT22;26430;48.818;9.244;2023-09-30T04:09:17;16.60;99.90
2447;DHT22;26430;48.818;9.244;2023-09-30T04:11:42;16.70;99.90
2447;DHT22;26430;48.818;9.244;2023-09-30T04:14:08;16.80;99.90
2447;DHT22;26430;48.818;9.244;2023-09-30T04:16:35;16.70;99.90
2447;DHT22;26430;48.818;9.244;2023-09-30T04:19:01;16.60;99.90
2447;DHT22;26430;48.818;9.244;2023-09-30T04:21:27;16.70;99.90
2447;DHT22;26430;48.818;9.244;2023-09-30T04:23:55;16.60;99.90
2447;DHT22;26430;48.818;9.244;2023-09-30T04:26:21;16.60;99.90
2447;DHT22;26430;48.818;9.244;2023-09-30T04:28:47;16.60;99.90
2447;DHT22;26430;48.818;9.244;2023-09-30T04:31:12;16.60;99.90
2447;DHT22;26430;48.818;9.244;2023-09-30T04:33:38;16.60;99.90
2447;DHT22;26430;48.818;9.244;2023-09-30T04:36:05;16.60;99.90
2447;DHT22;26430;48.818;9.244;2023-09-30T04:38:33;16.60;99.90
2447;DHT22;26430;48.818;9.244;2023-09-30T04:40:59;16.60;99.90
2447;DHT22;26430;48.818;9.244;2023-09-30T04:43:26;16.60;99.90
2447;DHT22;26430;48.818;9.244;2023-09-30T04:45:54;16.50;99.90
2447;DHT22;26430;48.818;9.244;2023-09-30T04:48:25;16.50;99.90
2447;DHT22;26430;48.818;9.244;2023-09-30T04:50:51;16.50;99.90
2447;DHT22;26430;48.818;9.244;2023-09-30T04:53:17;16.50;99.90
2447;DHT22;26430;48.818;9.244;2023-09-30T04:55:46;16.50;99.90
2447;DHT22;26430;48.818;9.244;2023-09-30T04:58:14;16.50;99.90
2447;DHT22;26430;48.818;9.244;2023-09-30T05:00:40;16.50;99.90
2447;DHT22;26430;48.818;9.244;2023-09-30T05:03:06;16.50;99.90
2447;DHT22;26430;48.818;9.244;2023-09-30T05:05:32;16.60;99.90
2447;DHT22;26430;48.818;9.244;2023-09-30T05:07:58;16.60;99.90
2447;DHT22;26430;48.818;9.244;2023-09-30T05:10:24;16.60;99.90
2447;DHT22;26430;48.818;9.244;2023-09-30T05:12:50;16.60;99.90
2447;DHT22;26430;48.818;9.244;2023-09-30T05:15:20;16.60;99.90
2447;DHT22;26430;48.818;9.244;2023-09-30T05:17:46;16.60;99.90
2447;DHT22;26430;48.818;9.244;2023-09-30T05:20:12;16.60;99.90
2447;DHT22;26430;48.818;9.244;2023-09-30T05:22:41;16.60;99.90
2447;DHT22;26430;48.818;9.244;2023-09-30T05:25:10;16.60;99.90
2447;DHT22;26430;48.818;9.244;2023-09-30T05:27:36;16.50;99.90
2447;DHT22;26430;48.818;9.244;2023-09-30T05:30:01;16.50;99.90
2447;DHT22;26430;48.818;9.244;2023-09-30T05:32:27;16.40;99.90
2447;DHT22;26430;48.818;9.244;2023-09-30T05:34:53;16.30;99.90
2447;DHT22;26430;48.818;9.244;2023-09-30T05:37:20;16.30;99.90
2447;DHT22;26430;48.818;9.244;2023-09-30T05:39:47;16.20;99.90
2447;DHT22;26430;48.818;9.244;2023-09-30T05:42:15;16.30;99.90
2447;DHT22;26430;48.818;9.244;2023-09-30T05:44:40;16.20;99.90
2447;DHT22;26430;48.818;9.244;2023-09-30T05:47:07;16.30;99.90
2447;DHT22;26430;48.818;9.244;2023-09-30T05:49:33;16.20;99.90
2447;DHT22;26430;48.818;9.244;2023-09-30T05:51:59;16.30;99.90
2447;DHT22;26430;48.818;9.244;2023-09-30T05:54:24;16.30;99.90
2447;DHT22;26430;48.818;9.244;2023-09-30T05:56:50;16.40;99.90
2447;DHT22;26430;48.818;9.244;2023-09-30T05:59:15;16.40;99.90
2447;DHT22;26430;48.818;9.244;2023-09-30T06:01:41;16.50;99.90
2447;DHT22;26430;48.818;9.244;2023-09-30T06:04:07;16.60;99.90
2447;DHT22;26430;48.818;9.244;2023-09-30T06:06:33;16.60;99.90
2447;DHT22;26430;48.818;9.244;2023-09-30T06:08:59;16.60;99.90
2447;DHT22;26430;48.818;9.244;2023-09-30T06:11:25;16.60;99.90
2447;DHT22;26430;48.818;9.244;2023-09-30T06:13:53;16.80;99.90
2447;DHT22;26430;48.818;9.244;2023-09-30T06:16:19;16.90;99.90
2447;DHT22;26430;48.818;9.244;2023-09-30T06:18:45;16.90;99.90
2447;DHT22;26430;48.818;9.244;2023-09-30T06:21:15;17.00;99.90
2447;DHT22;26430;48.818;9.244;2023-09-30T06:23:43;17.20;99.90
2447;DHT22;26430;48.818;9.244;2023-09-30T06:26:09;17.20;99.90
2447;DHT22;26430;48.818;9.244;2023-09-30T06:28:35;17.40;99.90
2447;DHT22;26430;48.818;9.244;2023-09-30T06:31:09;17.40;99.90
2447;DHT22;26430;48.818;9.244;2023-09-30T06:33:36;17.30;99.90
2447;DHT22;26430;48.818;9.244;2023-09-30T06:36:01;17.30;99.90
2447;DHT22;26430;48.818;9.244;2023-09-30T06:38:28;17.30;99.90
2447;DHT22;26430;48.818;9.244;2023-09-30T06:40:53;17.10;99.90
2447;DHT22;26430;48.818;9.244;2023-09-30T06:43:19;17.10;99.90
2447;DHT22;26430;48.818;9.244;2023-09-30T06:45:45;17.20;99.90
2447;DHT22;26430;48.818;9.244;2023-09-30T06:48:12;17.20;99.90
2447;DHT22;26430;48.818;9.244;2023-09-30T06:50:49;17.10;99.90
2447;DHT22;26430;48.818;9.244;2023-09-30T06:53:18;17.10;99.90
2447;DHT22;26430;48.818;9.244;2023-09-30T06:55:44;16.80;99.90
2447;DHT22;26430;48.818;9.244;2023-09-30T06:58:10;17.00;99.90
2447;DHT22;26430;48.818;9.244;2023-09-30T07:00:40;17.30;99.90
2447;DHT22;26430;48.818;9.244;2023-09-30T07:03:06;17.30;99.90
2447;DHT22;26430;48.818;9.244;2023-09-30T07:05:35;17.30;99.90
2447;DHT22;26430;48.818;9.244;2023-09-30T07:08:01;17.30;99.90
2447;DHT22;26430;48.818;9.244;2023-09-30T07:10:27;17.20;99.90
2447;DHT22;26430;48.818;9.244;2023-09-30T07:12:54;17.20;99.90
2447;DHT22;26430;48.818;9.244;2023-09-30T07:15:20;17.20;99.90
2447;DHT22;26430;48.818;9.244;2023-09-30T07:17:45;17.20;99.90
2447;DHT22;26430;48.818;9.244;2023-09-30T07:20:13;17.10;99.90
2447;DHT22;26430;48.818;9.244;2023-09-30T07:22:38;17.10;99.90
2447;DHT22;26430;48.818;9.244;2023-09-30T07:25:04;17.20;99.90
2447;DHT22;26430;48.818;9.244;2023-09-30T07:27:30;17.30;99.90
2447;DHT22;26430;48.818;9.244;2023-09-30T07:29:55;17.20;99.90
2447;DHT22;26430;48.818;9.244;2023-09-30T07:32:21;17.30;99.90
2447;DHT22;26430;48.818;9.244;2023-09-30T07:34:50;17.40;99.90
2447;DHT22;26430;48.818;9.244;2023-09-30T07:37:17;17.60;99.90
2447;DHT22;26430;48.818;9.244;2023-09-30T07:39:46;17.50;99.90
2447;DHT22;26430;48.818;9.244;2023-09-30T07:42:11;17.50;99.90
2447;DHT22;26430;48.818;9.244;2023-09-30T07:44:37;17.40;99.90
2447;DHT22;26430;48.818;9.244;2023-09-30T07:47:06;17.30;99.90
2447;DHT22;26430;48.818;9.244;2023-09-30T07:49:34;17.30;99.90
2447;DHT22;26430;48.818;9.244;2023-09-30T07:52:00;17.50;99.90
2447;DHT22;26430;48.818;9.244;2023-09-30T07:54:26;17.60;99.90
2447;DHT22;26430;48.818;9.244;2023-09-30T07:56:51;17.70;99.90
2447;DHT22;26430;48.818;9.244;2023-09-30T07:59:17;17.70;99.90
2447;DHT22;26430;48.818;9.244;2023-09-30T08:01:43;17.70;99.90
2447;DHT22;26430;48.818;9.244;2023-09-30T08:04:09;17.60;99.90
2447;DHT22;26430;48.818;9.244;2023-09-30T08:06:34;17.50;99.90
2447;DHT22;26430;48.818;9.244;2023-09-30T08:09:00;17.40;99.90
2447;DHT22;26430;48.818;9.244;2023-09-30T08:11:25;17.50;99.90
2447;DHT22;26430;48.818;9.244;2023-09-30T08:13:56;17.50;99.90
2447;DHT22;26430;48.818;9.244;2023-09-30T08:16:24;17.50;99.90
2447;DHT22;26430;48.818;9.244;2023-09-30T08:18:49;17.50;99.90
2447;DHT22;26430;48.818;9.244;2023-09-30T08:21:15;17.60;99.90
2447;DHT22;26430;48.818;9.244;2023-09-30T08:23:41;17.40;99.90
2447;DHT22;26430;48.818;9.244;2023-09-30T08:26:06;17.50;99.90
2447;DHT22;26430;48.818;9.244;2023-09-30T08:28:32;17.70;99.90
2447;DHT22;26430;48.818;9.244;2023-09-30T08:31:05;17.80;99.90
2447;DHT22;26430;48.818;9.244;2023-09-30T08:33:31;17.90;99.90
2447;DHT22;26430;48.818;9.244;2023-09-30T08:36:02;18.10;99.90
2447;DHT22;26430;48.818;9.244;2023-09-30T08:38:32;18.20;99.90
2447;DHT22;26430;48.818;9.244;2023-09-30T08:40:58;18.40;99.90
2447;DHT22;26430;48.818;9.244;2023-09-30T08:43:25;18.20;99.90
2447;DHT22;26430;48.818;9.244;2023-09-30T08:45:53;18.00;99.90
2447;DHT22;26430;48.818;9.244;2023-09-30T08:48:20;17.80;99.90
2447;DHT22;26430;48.818;9.244;2023-09-30T08:50:48;17.30;99.90
2447;DHT22;26430;48.818;9.244;2023-09-30T08:53:16;17.60;99.90
2447;DHT22;26430;48.818;9.244;2023-09-30T08:55:44;17.80;99.90
2447;DHT22;26430;48.818;9.244;2023-09-30T08:58:12;18.00;99.90
2447;DHT22;26430;48.818;9.244;2023-09-30T09:00:39;17.80;99.90
2447;DHT22;26430;48.818;9.244;2023-09-30T09:03:07;17.90;99.90
2447;DHT22;26430;48.818;9.244;2023-09-30T09:05:32;18.10;99.90
2447;DHT22;26430;48.818;9.244;2023-09-30T09:07:58;18.10;99.90
2447;DHT22;26430;48.818;9.244;2023-09-30T09:10:23;18.30;99.90
2447;DHT22;26430;48.818;9.244;2023-09-30T09:12:57;18.20;99.90
2447;DHT22;26430;48.818;9.244;2023-09-30T09:15:27;18.60;99.90
2447;DHT22;26430;48.818;9.244;2023-09-30T09:17:54;19.00;99.90
2447;DHT22;26430;48.818;9.244;2023-09-30T09:20:22;19.50;99.90
2447;DHT22;26430;48.818;9.244;2023-09-30T09:22:50;20.00;99.90
2447;DHT22;26430;48.818;9.244;2023-09-30T09:25:19;19.90;99.90
2447;DHT22;26430;48.818;9.244;2023-09-30T09:27:49;19.50;99.90
2447;DHT22;26430;48.818;9.244;2023-09-30T09:30:22;20.10;99.90
2447;DHT22;26430;48.818;9.244;2023-09-30T09:33:01;20.80;99.90
2447;DHT22;26430;48.818;9.244;2023-09-30T09:35:29;21.60;99.90
2447;DHT22;26430;48.818;9.244;2023-09-30T09:38:00;22.40;99.90
2447;DHT22;26430;48.818;9.244;2023-09-30T09:40:28;21.00;99.90
2447;DHT22;26430;48.818;9.244;2023-09-30T09:42:57;21.10;99.90
2447;DHT22;26430;48.818;9.244;2023-09-30T09:45:26;21.60;99.90
2447;DHT22;26430;48.818;9.244;2023-09-30T09:47:53;22.70;99.90
2447;DHT22;26430;48.818;9.244;2023-09-30T09:50:20;23.00;99.90
2447;DHT22;26430;48.818;9.244;2023-09-30T09:52:53;23.40;99.90
2447;DHT22;26430;48.818;9.244;2023-09-30T09:55:22;22.40;99.90
2447;DHT22;26430;48.818;9.244;2023-09-30T09:57:49;22.50;99.90
2447;DHT22;26430;48.818;9.244;2023-09-30T10:00:17;22.90;99.90
2447;DHT22;26430;48.818;9.244;2023-09-30T10:02:47;22.50;99.90
2447;DHT22;26430;48.818;9.244;2023-09-30T10:05:14;23.00;99.90
2447;DHT22;26430;48.818;9.244;2023-09-30T10:08:03;23.00;99.90
2447;DHT22;26430;48.818;9.244;2023-09-30T10:10:30;23.90;99.90
2447;DHT22;26430;48.818;9.244;2023-09-30T10:12:56;24.70;99.90
2447;DHT22;26430;48.818;9.244;2023-09-30T10:18:09;24.60;99.90
2447;DHT22;26430;48.818;9.244;2023-09-30T10:20:39;24.50;99.90
2447;DHT22;26430;48.818;9.244;2023-09-30T10:23:28;25.20;99.90
2447;DHT22;26430;48.818;9.244;2023-09-30T10:31:22;24.00;99.90
2447;DHT22;26430;48.818;9.244;2023-09-30T10:38:54;22.50;99.90
2447;DHT22;26430;48.818;9.244;2023-09-30T10:44:40;22.40;99.90
2447;DHT22;26430;48.818;9.244;2023-09-30T10:49:46;21.90;99.90
2447;DHT22;26430;48.818;9.244;2023-09-30T10:52:21;21.70;99.90
2447;DHT22;26430;48.818;9.244;2023-09-30T10:54:49;21.20;99.90
2447;DHT22;26430;48.818;9.244;2023-09-30T10:57:28;20.90;99.90
2447;DHT22;26430;48.818;9.244;2023-09-30T11:00:10;21.00;99.90
2447;DHT22;26430;48.818;9.244;2023-09-30T11:02:50;20.80;99.90
2447;DHT22;26430;48.818;9.244;2023-09-30T11:05:19;20.50;99.90
2447;DHT22;26430;48.818;9.244;2023-09-30T11:07:48;20.30;99.90
2447;DHT22;26430;48.818;9.244;2023-09-30T11:10:17;20.60;99.90
2447;DHT22;26430;48.818;9.244;2023-09-30T11:12:59;20.60;99.90
2447;DHT22;26430;48.818;9.244;2023-09-30T11:15:25;21.30;99.90
2447;DHT22;26430;48.818;9.244;2023-09-30T11:17:53;21.50;99.90
2447;DHT22;26430;48.818;9.244;2023-09-30T11:20:19;21.40;99.90
2447;DHT22;26430;48.818;9.244;2023-09-30T11:22:47;22.10;99.90
2447;DHT22;26430;48.818;9.244;2023-09-30T11:25:17;22.50;99.90
2447;DHT22;26430;48.818;9.244;2023-09-30T11:27:43;23.00;99.90
2447;DHT22;26430;48.818;9.244;2023-09-30T11:30:09;23.50;99.90
2447;DHT22;26430;48.818;9.244;2023-09-30T11:32:35;23.90;99.90
2447;DHT22;26430;48.818;9.244;2023-09-30T11:35:01;24.20;99.90
2447;DHT22;26430;48.818;9.244;2023-09-30T11:37:33;24.40;99.90
2447;DHT22;26430;48.818;9.244;2023-09-30T11:40:14;24.40;99.90
2447;DHT22;26430;48.818;9.244;2023-09-30T11:42:40;24.30;99.90
2447;DHT22;26430;48.818;9.244;2023-09-30T11:45:20;23.80;99.90
2447;DHT22;26430;48.818;9.244;2023-09-30T11:47:46;23.70;99.90
2447;DHT22;26430;48.818;9.244;2023-09-30T11:50:12;23.60;99.90
2447;DHT22;26430;48.818;9.244;2023-09-30T11:52:38;23.50;99.90
2447;DHT22;26430;48.818;9.244;2023-09-30T11:55:05;22.90;99.90
2447;DHT22;26430;48.818;9.244;2023-09-30T11:57:31;22.70;99.90
2447;DHT22;26430;48.818;9.244;2023-09-30T11:59:57;22.60;99.90
2447;DHT22;26430;48.818;9.244;2023-09-30T12:02:22;22.50;99.90
2447;DHT22;26430;48.818;9.244;2023-09-30T12:04:48;22.50;99.90
2447;DHT22;26430;48.818;9.244;2023-09-30T12:07:13;22.20;99.90
2447;DHT22;26430;48.818;9.244;2023-09-30T12:09:39;22.10;99.90
2447;DHT22;26430;48.818;9.244;2023-09-30T12:12:06;22.10;99.90
2447;DHT22;26430;48.818;9.244;2023-09-30T12:14:35;22.10;99.90
2447;DHT22;26430;48.818;9.244;2023-09-30T12:17:00;22.30;99.90
2447;DHT22;26430;48.818;9.244;2023-09-30T12:19:26;22.40;99.90
2447;DHT22;26430;48.818;9.244;2023-09-30T12:21:52;22.70;99.90
2447;DHT22;26430;48.818;9.244;2023-09-30T12:24:18;22.80;99.90
2447;DHT22;26430;48.818;9.244;2023-09-30T12:26:48;22.90;99.90
2447;DHT22;26430;48.818;9.244;2023-09-30T12:29:21;23.00;99.90
2447;DHT22;26430;48.818;9.244;2023-09-30T12:31:51;23.10;99.90
2447;DHT22;26430;48.818;9.244;2023-09-30T12:34:17;23.20;99.90
2447;DHT22;26430;48.818;9.244;2023-09-30T12:36:43;23.20;99.90
2447;DHT22;26430;48.818;9.244;2023-09-30T12:39:10;23.40;99.90
2447;DHT22;26430;48.818;9.244;2023-09-30T12:41:43;23.30;99.90
2447;DHT22;26430;48.818;9.244;2023-09-30T12:44:10;23.30;99.90
2447;DHT22;26430;48.818;9.244;2023-09-30T12:46:36;23.20;99.90
2447;DHT22;26430;48.818;9.244;2023-09-30T12:49:08;23.30;99.90
2447;DHT22;26430;48.818;9.244;2023-09-30T12:51:35;23.30;99.90
2447;DHT22;26430;48.818;9.244;2023-09-30T12:54:02;23.50;99.90
2447;DHT22;26430;48.818;9.244;2023-09-30T12:56:28;23.70;99.90
2447;DHT22;26430;48.818;9.244;2023-09-30T12:58:57;23.50;99.90
2447;DHT22;26430;48.818;9.244;2023-09-30T13:01:23;23.60;99.90
2447;DHT22;26430;48.818;9.244;2023-09-30T13:03:49;23.50;99.90
2447;DHT22;26430;48.818;9.244;2023-09-30T13:06:15;23.40;99.90
2447;DHT22;26430;48.818;9.244;2023-09-30T13:08:41;23.50;99.90
2447;DHT22;26430;48.818;9.244;2023-09-30T13:11:08;23.70;99.90
2447;DHT22;26430;48.818;9.244;2023-09-30T13:13:34;23.70;99.90
2447;DHT22;26430;48.818;9.244;2023-09-30T13:16:00;23.70;99.90
2447;DHT22;26430;48.818;9.244;2023-09-30T13:18:26;23.90;99.90
2447;DHT22;26430;48.818;9.244;2023-09-30T13:20:52;23.90;99.90
2447;DHT22;26430;48.818;9.244;2023-09-30T13:23:18;23.80;99.90
2447;DHT22;26430;48.818;9.244;2023-09-30T13:25:44;23.70;99.90
2447;DHT22;26430;48.818;9.244;2023-09-30T13:28:10;23.60;99.90
2447;DHT22;26430;48.818;9.244;2023-09-30T13:30:36;23.40;99.90
2447;DHT22;26430;48.818;9.244;2023-09-30T13:33:01;23.30;99.90
2447;DHT22;26430;48.818;9.244;2023-09-30T13:35:27;23.10;99.90
2447;DHT22;26430;48.818;9.244;2023-09-30T13:37:53;23.10;99.90
2447;DHT22;26430;48.818;9.244;2023-09-30T13:40:18;23.20;99.90
2447;DHT22;26430;48.818;9.244;2023-09-30T13:42:44;23.20;99.90
2447;DHT22;26430;48.818;9.244;2023-09-30T13:45:10;23.20;99.90
2447;DHT22;26430;48.818;9.244;2023-09-30T13:47:36;23.30;99.90
2447;DHT22;26430;48.818;9.244;2023-09-30T13:50:02;23.20;99.90
2447;DHT22;26430;48.818;9.244;2023-09-30T13:52:33;23.40;99.90
2447;DHT22;26430;48.818;9.244;2023-09-30T13:54:59;23.20;99.90
2447;DHT22;26430;48.818;9.244;2023-09-30T13:57:25;23.10;99.90
2447;DHT22;26430;48.818;9.244;2023-09-30T13:59:51;23.20;99.90
2447;DHT22;26430;48.818;9.244;2023-09-30T14:02:16;23.00;99.90
2447;DHT22;26430;48.818;9.244;2023-09-30T14:04:42;22.90;99.90
2447;DHT22;26430;48.818;9.244;2023-09-30T14:07:07;22.90;99.90
2447;DHT22;26430;48.818;9.244;2023-09-30T14:09:34;22.90;99.90
2447;DHT22;26430;48.818;9.244;2023-09-30T14:11:59;22.60;99.90
2447;DHT22;26430;48.818;9.244;2023-09-30T14:14:25;22.60;99.90
2447;DHT22;26430;48.818;9.244;2023-09-30T14:16:51;22.40;99.90
2447;DHT22;26430;48.818;9.244;2023-09-30T14:19:17;22.40;99.90
2447;DHT22;26430;48.818;9.244;2023-09-30T14:21:43;22.40;99.90
2447;DHT22;26430;48.818;9.244;2023-09-30T14:24:08;22.40;99.90
2447;DHT22;26430;48.818;9.244;2023-09-30T14:26:34;22.40;99.90
2447;DHT22;26430;48.818;9.244;2023-09-30T14:28:59;22.40;99.90
2447;DHT22;26430;48.818;9.244;2023-09-30T14:31:25;22.40;99.90
2447;DHT22;26430;48.818;9.244;2023-09-30T14:33:51;22.40;99.90
2447;DHT22;26430;48.818;9.244;2023-09-30T14:36:17;22.30;99.90
2447;DHT22;26430;48.818;9.244;2023-09-30T14:38:44;22.40;99.90
2447;DHT22;26430;48.818;9.244;2023-09-30T14:41:10;22.30;99.90
2447;DHT22;26430;48.818;9.244;2023-09-30T14:43:37;22.20;99.90
2447;DHT22;26430;48.818;9.244;2023-09-30T14:46:03;22.20;99.90
2447;DHT22;26430;48.818;9.244;2023-09-30T14:48:29;22.20;99.90
2447;DHT22;26430;48.818;9.244;2023-09-30T14:50:55;22.10;99.90
2447;DHT22;26430;48.818;9.244;2023-09-30T14:53:21;22.20;99.90
2447;DHT22;26430;48.818;9.244;2023-09-30T14:55:46;22.20;99.90
2447;DHT22;26430;48.818;9.244;2023-09-30T14:58:12;22.10;99.90
2447;DHT22;26430;48.818;9.244;2023-09-30T15:00:37;22.10;99.90
2447;DHT22;26430;48.818;9.244;2023-09-30T15:03:03;22.20;99.90
2447;DHT22;26430;48.818;9.244;2023-09-30T15:05:31;22.10;99.90
2447;DHT22;26430;48.818;9.244;2023-09-30T15:07:56;22.10;99.90
2447;DHT22;26430;48.818;9.244;2023-09-30T15:10:22;22.00;99.90
2447;DHT22;26430;48.818;9.244;2023-09-30T15:12:48;22.20;99.90
2447;DHT22;26430;48.818;9.244;2023-09-30T15:15:13;22.10;99.90
2447;DHT22;26430;48.818;9.244;2023-09-30T15:17:39;22.00;99.90
2447;DHT22;26430;48.818;9.244;2023-09-30T15:20:05;22.00;99.90
2447;DHT22;26430;48.818;9.244;2023-09-30T15:22:32;21.90;99.90
2447;DHT22;26430;48.818;9.244;2023-09-30T15:24:58;21.80;99.90
2447;DHT22;26430;48.818;9.244;2023-09-30T15:27:23;21.80;99.90
2447;DHT22;26430;48.818;9.244;2023-09-30T15:29:50;21.80;99.90
2447;DHT22;26430;48.818;9.244;2023-09-30T15:32:16;21.70;99.90
2447;DHT22;26430;48.818;9.244;2023-09-30T15:34:42;21.80;99.90
2447;DHT22;26430;48.818;9.244;2023-09-30T15:37:08;21.60;99.90
2447;DHT22;26430;48.818;9.244;2023-09-30T15:39:40;21.60;99.90
2447;DHT22;26430;48.818;9.244;2023-09-30T15:42:07;21.70;99.90
2447;DHT22;26430;48.818;9.244;2023-09-30T15:44:37;21.50;99.90
2447;DHT22;26430;48.818;9.244;2023-09-30T15:47:05;21.40;99.90
2447;DHT22;26430;48.818;9.244;2023-09-30T15:49:31;21.40;99.90
2447;DHT22;26430;48.818;9.244;2023-09-30T15:51:57;21.40;99.90
2447;DHT22;26430;48.818;9.244;2023-09-30T15:54:23;21.50;99.90
2447;DHT22;26430;48.818;9.244;2023-09-30T15:56:48;21.50;99.90
2447;DHT22;26430;48.818;9.244;2023-09-30T15:59:14;21.40;99.90
2447;DHT22;26430;48.818;9.244;2023-09-30T16:01:39;21.40;99.90
2447;DHT22;26430;48.818;9.244;2023-09-30T16:04:05;21.30;99.90
2447;DHT22;26430;48.818;9.244;2023-09-30T16:06:30;21.30;99.90